sensor_id;sensor_type;location;lat;lon;timestamp;temperature;humidity
2957;DHT22;1488;51.548;7.222;2023-05-07T00:02:18;22.80;73.10
2957;DHT22;1488;51.548;7.222;2023-05-07T00:04:44;22.80;73.10
2957;DHT22;1488;51.548;7.222;2023-05-07T00:07:11;23.00;73.30
2957;DHT22;1488;51.548;7.222;2023-05-07T00:09:38;22.80;73.10
2957;DHT22;1488;51.548;7.222;2023-05-07T00:12:05;22.80;73.10
2957;DHT22;1488;51.548;7.222;2023-05-07T00:14:32;22.80;73.10
2957;DHT22;1488;51.548;7.222;2023-05-07T00:17:00;22.80;73.10
2957;DHT22;1488;51.548;7.222;2023-05-07T00:19:27;22.80;73.10
2957;DHT22;1488;51.548;7.222;2023-05-07T00:21:53;22.80;73.10
2957;DHT22;1488;51.548;7.222;2023-05-07T00:24:21;22.80;73.10
2957;DHT22;1488;51.548;7.222;2023-05-07T00:26:48;22.80;73.10
2957;DHT22;1488;51.548;7.222;2023-05-07T00:29:14;22.80;73.10
2957;DHT22;1488;51.548;7.222;2023-05-07T00:31:41;22.80;73.20
2957;DHT22;1488;51.548;7.222;2023-05-07T00:34:09;22.80;73.10
2957;DHT22;1488;51.548;7.222;2023-05-07T00:36:37;22.80;73.10
2957;DHT22;1488;51.548;7.222;2023-05-07T00:39:04;22.80;73.10
2957;DHT22;1488;51.548;7.222;2023-05-07T00:41:31;22.80;72.00
2957;DHT22;1488;51.548;7.222;2023-05-07T00:43:57;22.80;71.40
2957;DHT22;1488;51.548;7.222;2023-05-07T00:46:24;22.70;71.40
2957;DHT22;1488;51.548;7.222;2023-05-07T00:48:51;22.90;71.80
2957;DHT22;1488;51.548;7.222;2023-05-07T00:51:20;22.70;71.70
2957;DHT22;1488;51.548;7.222;2023-05-07T00:53:47;22.70;71.80
2957;DHT22;1488;51.548;7.222;2023-05-07T00:56:14;22.70;72.60
2957;DHT22;1488;51.548;7.222;2023-05-07T00:58:41;22.80;73.00
2957;DHT22;1488;51.548;7.222;2023-05-07T01:01:08;22.80;73.20
2957;DHT22;1488;51.548;7.222;2023-05-07T01:03:35;22.80;73.30
2957;DHT22;1488;51.548;7.222;2023-05-07T01:06:03;22.80;73.40
2957;DHT22;1488;51.548;7.222;2023-05-07T01:08:31;22.80;73.40
2957;DHT22;1488;51.548;7.222;2023-05-07T01:11:00;22.80;73.40
2957;DHT22;1488;51.548;7.222;2023-05-07T01:13:28;22.80;73.40
2957;DHT22;1488;51.548;7.222;2023-05-07T01:15:55;22.80;73.40
2957;DHT22;1488;51.548;7.222;2023-05-07T01:18:22;22.80;73.50
2957;DHT22;1488;51.548;7.222;2023-05-07T01:20:49;22.80;73.40
2957;DHT22;1488;51.548;7.222;2023-05-07T01:23:18;22.80;73.40
2957;DHT22;1488;51.548;7.222;2023-05-07T01:25:51;22.80;73.50
2957;DHT22;1488;51.548;7.222;2023-05-07T01:28:18;22.80;73.40
2957;DHT22;1488;51.548;7.222;2023-05-07T01:30:48;22.80;73.40
2957;DHT22;1488;51.548;7.222;2023-05-07T01:33:19;22.80;73.40
2957;DHT22;1488;51.548;7.222;2023-05-07T01:35:50;22.80;73.40
2957;DHT22;1488;51.548;7.222;2023-05-07T01:38:18;22.80;73.50
2957;DHT22;1488;51.548;7.222;2023-05-07T01:40:45;22.90;73.60
2957;DHT22;1488;51.548;7.222;2023-05-07T01:43:12;22.70;73.30
2957;DHT22;1488;51.548;7.222;2023-05-07T01:45:39;22.90;73.50
2957;DHT22;1488;51.548;7.222;2023-05-07T01:48:07;22.80;73.30
2957;DHT22;1488;51.548;7.222;2023-05-07T01:50:35;22.80;73.30
2957;DHT22;1488;51.548;7.222;2023-05-07T01:53:02;22.80;73.40
2957;DHT22;1488;51.548;7.222;2023-05-07T01:55:31;22.90;73.50
2957;DHT22;1488;51.548;7.222;2023-05-07T01:57:57;22.80;73.40
2957;DHT22;1488;51.548;7.222;2023-05-07T02:00:24;22.80;73.30
2957;DHT22;1488;51.548;7.222;2023-05-07T02:02:51;22.70;73.20
2957;DHT22;1488;51.548;7.222;2023-05-07T02:05:18;22.80;73.30
2957;DHT22;1488;51.548;7.222;2023-05-07T02:07:45;22.70;73.20
2957;DHT22;1488;51.548;7.222;2023-05-07T02:10:11;22.70;73.20
2957;DHT22;1488;51.548;7.222;2023-05-07T02:12:40;22.70;73.30
2957;DHT22;1488;51.548;7.222;2023-05-07T02:15:08;22.70;73.20
2957;DHT22;1488;51.548;7.222;2023-05-07T02:17:38;22.80;73.30
2957;DHT22;1488;51.548;7.222;2023-05-07T02:20:06;22.70;73.20
2957;DHT22;1488;51.548;7.222;2023-05-07T02:22:38;22.70;73.20
2957;DHT22;1488;51.548;7.222;2023-05-07T02:25:05;22.70;73.20
2957;DHT22;1488;51.548;7.222;2023-05-07T02:27:32;22.70;73.20
2957;DHT22;1488;51.548;7.222;2023-05-07T02:30:00;22.70;73.20
2957;DHT22;1488;51.548;7.222;2023-05-07T02:32:27;22.70;73.20
2957;DHT22;1488;51.548;7.222;2023-05-07T02:34:54;22.70;73.20
2957;DHT22;1488;51.548;7.222;2023-05-07T02:37:24;22.70;73.10
2957;DHT22;1488;51.548;7.222;2023-05-07T02:39:50;22.70;73.10
2957;DHT22;1488;51.548;7.222;2023-05-07T02:42:17;22.70;73.20
2957;DHT22;1488;51.548;7.222;2023-05-07T02:44:44;22.70;73.20
2957;DHT22;1488;51.548;7.222;2023-05-07T02:47:13;22.70;73.10
2957;DHT22;1488;51.548;7.222;2023-05-07T02:49:40;22.70;73.10
2957;DHT22;1488;51.548;7.222;2023-05-07T02:52:08;22.70;73.10
2957;DHT22;1488;51.548;7.222;2023-05-07T02:54:34;22.70;73.10
2957;DHT22;1488;51.548;7.222;2023-05-07T02:57:01;22.70;73.10
2957;DHT22;1488;51.548;7.222;2023-05-07T02:59:28;22.70;73.10
2957;DHT22;1488;51.548;7.222;2023-05-07T03:01:55;22.70;73.10
2957;DHT22;1488;51.548;7.222;2023-05-07T03:04:23;22.70;73.10
2957;DHT22;1488;51.548;7.222;2023-05-07T03:06:50;22.70;73.10
2957;DHT22;1488;51.548;7.222;2023-05-07T03:09:17;22.70;73.10
2957;DHT22;1488;51.548;7.222;2023-05-07T03:11:43;22.70;73.10
2957;DHT22;1488;51.548;7.222;2023-05-07T03:14:10;22.70;73.10
2957;DHT22;1488;51.548;7.222;2023-05-07T03:16:37;22.70;73.10
2957;DHT22;1488;51.548;7.222;2023-05-07T03:19:04;22.70;73.00
2957;DHT22;1488;51.548;7.222;2023-05-07T03:21:32;22.70;73.00
2957;DHT22;1488;51.548;7.222;2023-05-07T03:24:00;22.70;73.00
2957;DHT22;1488;51.548;7.222;2023-05-07T03:26:26;22.70;73.00
2957;DHT22;1488;51.548;7.222;2023-05-07T03:28:53;22.70;73.00
2957;DHT22;1488;51.548;7.222;2023-05-07T03:31:20;22.70;73.90
2957;DHT22;1488;51.548;7.222;2023-05-07T03:33:51;22.70;73.00
2957;DHT22;1488;51.548;7.222;2023-05-07T03:36:18;22.70;73.00
2957;DHT22;1488;51.548;7.222;2023-05-07T03:38:46;22.70;73.80
2957;DHT22;1488;51.548;7.222;2023-05-07T03:41:13;22.80;73.20
2957;DHT22;1488;51.548;7.222;2023-05-07T03:43:40;22.70;73.00
2957;DHT22;1488;51.548;7.222;2023-05-07T03:46:07;22.60;72.90
2957;DHT22;1488;51.548;7.222;2023-05-07T03:48:33;22.70;73.00
2957;DHT22;1488;51.548;7.222;2023-05-07T03:51:00;22.60;72.90
2957;DHT22;1488;51.548;7.222;2023-05-07T03:53:27;22.70;73.00
2957;DHT22;1488;51.548;7.222;2023-05-07T03:55:55;22.60;72.90
2957;DHT22;1488;51.548;7.222;2023-05-07T03:58:22;22.60;72.90
2957;DHT22;1488;51.548;7.222;2023-05-07T04:00:49;22.60;72.90
2957;DHT22;1488;51.548;7.222;2023-05-07T04:03:16;22.60;72.90
2957;DHT22;1488;51.548;7.222;2023-05-07T04:05:42;22.60;72.80
2957;DHT22;1488;51.548;7.222;2023-05-07T04:08:09;22.70;73.00
2957;DHT22;1488;51.548;7.222;2023-05-07T04:10:36;22.60;72.90
2957;DHT22;1488;51.548;7.222;2023-05-07T04:13:04;22.60;72.90
2957;DHT22;1488;51.548;7.222;2023-05-07T04:15:31;22.60;72.90
2957;DHT22;1488;51.548;7.222;2023-05-07T04:17:58;22.60;72.90
2957;DHT22;1488;51.548;7.222;2023-05-07T04:20:24;22.60;72.90
2957;DHT22;1488;51.548;7.222;2023-05-07T04:22:51;22.60;72.90
2957;DHT22;1488;51.548;7.222;2023-05-07T04:25:18;22.60;72.90
2957;DHT22;1488;51.548;7.222;2023-05-07T04:27:45;22.60;72.90
2957;DHT22;1488;51.548;7.222;2023-05-07T04:30:13;22.60;72.80
2957;DHT22;1488;51.548;7.222;2023-05-07T04:32:40;22.60;72.90
2957;DHT22;1488;51.548;7.222;2023-05-07T04:35:07;22.60;72.90
2957;DHT22;1488;51.548;7.222;2023-05-07T04:37:35;22.60;72.90
2957;DHT22;1488;51.548;7.222;2023-05-07T04:40:02;22.60;73.30
2957;DHT22;1488;51.548;7.222;2023-05-07T04:42:29;22.60;72.90
2957;DHT22;1488;51.548;7.222;2023-05-07T04:44:56;22.60;72.80
2957;DHT22;1488;51.548;7.222;2023-05-07T04:47:24;22.60;72.90
2957;DHT22;1488;51.548;7.222;2023-05-07T04:49:51;22.60;72.90
2957;DHT22;1488;51.548;7.222;2023-05-07T04:52:18;22.60;72.90
2957;DHT22;1488;51.548;7.222;2023-05-07T04:54:45;22.60;72.90
2957;DHT22;1488;51.548;7.222;2023-05-07T04:57:12;22.60;72.80
2957;DHT22;1488;51.548;7.222;2023-05-07T04:59:39;22.60;72.80
2957;DHT22;1488;51.548;7.222;2023-05-07T05:02:05;22.70;72.90
2957;DHT22;1488;51.548;7.222;2023-05-07T05:04:34;22.60;72.80
2957;DHT22;1488;51.548;7.222;2023-05-07T05:07:00;22.60;72.80
2957;DHT22;1488;51.548;7.222;2023-05-07T05:09:29;22.60;72.90
2957;DHT22;1488;51.548;7.222;2023-05-07T05:11:55;22.60;72.90
2957;DHT22;1488;51.548;7.222;2023-05-07T05:14:22;22.70;72.90
2957;DHT22;1488;51.548;7.222;2023-05-07T05:16:49;22.60;72.80
2957;DHT22;1488;51.548;7.222;2023-05-07T05:19:16;22.60;72.80
2957;DHT22;1488;51.548;7.222;2023-05-07T05:21:44;22.60;72.80
2957;DHT22;1488;51.548;7.222;2023-05-07T05:24:11;22.60;72.80
2957;DHT22;1488;51.548;7.222;2023-05-07T05:26:37;22.60;72.80
2957;DHT22;1488;51.548;7.222;2023-05-07T05:29:04;22.60;72.80
2957;DHT22;1488;51.548;7.222;2023-05-07T05:31:31;22.60;72.80
2957;DHT22;1488;51.548;7.222;2023-05-07T05:33:59;22.60;72.80
2957;DHT22;1488;51.548;7.222;2023-05-07T05:36:25;22.60;73.60
2957;DHT22;1488;51.548;7.222;2023-05-07T05:38:55;22.60;72.80
2957;DHT22;1488;51.548;7.222;2023-05-07T05:41:22;22.80;72.90
2957;DHT22;1488;51.548;7.222;2023-05-07T05:43:48;22.60;72.70
2957;DHT22;1488;51.548;7.222;2023-05-07T05:46:15;22.60;72.70
2957;DHT22;1488;51.548;7.222;2023-05-07T05:48:42;22.60;72.70
2957;DHT22;1488;51.548;7.222;2023-05-07T05:51:08;22.60;72.70
2957;DHT22;1488;51.548;7.222;2023-05-07T05:53:35;22.60;72.70
2957;DHT22;1488;51.548;7.222;2023-05-07T05:56:04;22.60;72.60
2957;DHT22;1488;51.548;7.222;2023-05-07T05:58:31;22.60;72.60
2957;DHT22;1488;51.548;7.222;2023-05-07T06:00:58;22.60;72.60
2957;DHT22;1488;51.548;7.222;2023-05-07T06:03:24;22.60;72.60
2957;DHT22;1488;51.548;7.222;2023-05-07T06:05:51;22.60;72.70
2957;DHT22;1488;51.548;7.222;2023-05-07T06:08:18;22.80;72.80
2957;DHT22;1488;51.548;7.222;2023-05-07T06:10:45;22.60;72.60
2957;DHT22;1488;51.548;7.222;2023-05-07T06:13:13;22.60;72.60
2957;DHT22;1488;51.548;7.222;2023-05-07T06:15:40;22.60;72.60
2957;DHT22;1488;51.548;7.222;2023-05-07T06:18:07;22.60;72.60
2957;DHT22;1488;51.548;7.222;2023-05-07T06:20:33;22.60;72.60
2957;DHT22;1488;51.548;7.222;2023-05-07T06:23:00;22.60;72.60
2957;DHT22;1488;51.548;7.222;2023-05-07T06:25:27;22.60;72.50
2957;DHT22;1488;51.548;7.222;2023-05-07T06:27:54;22.70;72.60
2957;DHT22;1488;51.548;7.222;2023-05-07T06:30:22;22.80;72.70
2957;DHT22;1488;51.548;7.222;2023-05-07T06:32:49;22.60;72.50
2957;DHT22;1488;51.548;7.222;2023-05-07T06:35:15;22.60;72.50
2957;DHT22;1488;51.548;7.222;2023-05-07T06:37:42;22.60;72.40
2957;DHT22;1488;51.548;7.222;2023-05-07T06:40:10;22.80;72.60
2957;DHT22;1488;51.548;7.222;2023-05-07T06:42:37;22.60;72.40
2957;DHT22;1488;51.548;7.222;2023-05-07T06:45:04;22.70;72.50
2957;DHT22;1488;51.548;7.222;2023-05-07T06:47:33;22.60;72.40
2957;DHT22;1488;51.548;7.222;2023-05-07T06:49:59;22.60;72.30
2957;DHT22;1488;51.548;7.222;2023-05-07T06:52:26;22.60;72.40
2957;DHT22;1488;51.548;7.222;2023-05-07T06:54:53;22.60;72.30
2957;DHT22;1488;51.548;7.222;2023-05-07T06:57:20;22.70;72.40
2957;DHT22;1488;51.548;7.222;2023-05-07T06:59:46;22.70;72.30
2957;DHT22;1488;51.548;7.222;2023-05-07T07:02:13;22.60;72.20
2957;DHT22;1488;51.548;7.222;2023-05-07T07:04:41;22.60;72.20
2957;DHT22;1488;51.548;7.222;2023-05-07T07:07:08;22.60;72.20
2957;DHT22;1488;51.548;7.222;2023-05-07T07:09:35;22.70;72.30
2957;DHT22;1488;51.548;7.222;2023-05-07T07:12:02;22.70;72.30
2957;DHT22;1488;51.548;7.222;2023-05-07T07:14:28;22.70;72.30
2957;DHT22;1488;51.548;7.222;2023-05-07T07:16:55;22.70;72.40
2957;DHT22;1488;51.548;7.222;2023-05-07T07:19:22;22.70;72.40
2957;DHT22;1488;51.548;7.222;2023-05-07T07:21:50;22.70;72.40
2957;DHT22;1488;51.548;7.222;2023-05-07T07:24:17;22.70;72.40
2957;DHT22;1488;51.548;7.222;2023-05-07T07:26:46;22.70;72.40
2957;DHT22;1488;51.548;7.222;2023-05-07T07:29:13;22.70;72.50
2957;DHT22;1488;51.548;7.222;2023-05-07T07:31:40;22.70;72.40
2957;DHT22;1488;51.548;7.222;2023-05-07T07:34:07;22.70;72.50
2957;DHT22;1488;51.548;7.222;2023-05-07T07:36:33;22.70;72.50
2957;DHT22;1488;51.548;7.222;2023-05-07T07:39:01;22.70;72.50
2957;DHT22;1488;51.548;7.222;2023-05-07T07:41:28;22.70;72.50
2957;DHT22;1488;51.548;7.222;2023-05-07T07:43:55;22.70;72.60
2957;DHT22;1488;51.548;7.222;2023-05-07T07:46:22;22.70;72.60
2957;DHT22;1488;51.548;7.222;2023-05-07T07:48:48;22.70;72.60
2957;DHT22;1488;51.548;7.222;2023-05-07T07:51:15;22.70;72.60
2957;DHT22;1488;51.548;7.222;2023-05-07T07:53:42;22.70;72.60
2957;DHT22;1488;51.548;7.222;2023-05-07T07:56:10;22.70;72.70
2957;DHT22;1488;51.548;7.222;2023-05-07T07:58:37;22.70;72.70
2957;DHT22;1488;51.548;7.222;2023-05-07T08:01:04;22.70;72.60
2957;DHT22;1488;51.548;7.222;2023-05-07T08:03:31;22.70;72.70
2957;DHT22;1488;51.548;7.222;2023-05-07T08:05:58;22.70;72.70
2957;DHT22;1488;51.548;7.222;2023-05-07T08:08:25;22.70;72.70
2957;DHT22;1488;51.548;7.222;2023-05-07T08:10:52;22.70;72.70
2957;DHT22;1488;51.548;7.222;2023-05-07T08:13:20;22.70;73.50
2957;DHT22;1488;51.548;7.222;2023-05-07T08:15:47;22.70;73.60
2957;DHT22;1488;51.548;7.222;2023-05-07T08:18:13;22.70;72.70
2957;DHT22;1488;51.548;7.222;2023-05-07T08:20:40;22.70;72.80
2957;DHT22;1488;51.548;7.222;2023-05-07T08:23:08;22.70;72.70
2957;DHT22;1488;51.548;7.222;2023-05-07T08:25:34;22.70;72.70
2957;DHT22;1488;51.548;7.222;2023-05-07T08:28:01;22.70;72.70
2957;DHT22;1488;51.548;7.222;2023-05-07T08:30:30;22.70;72.80
2957;DHT22;1488;51.548;7.222;2023-05-07T08:32:56;22.70;72.80
2957;DHT22;1488;51.548;7.222;2023-05-07T08:35:23;22.70;72.80
2957;DHT22;1488;51.548;7.222;2023-05-07T08:37:51;22.70;72.80
2957;DHT22;1488;51.548;7.222;2023-05-07T08:40:18;22.70;72.80
2957;DHT22;1488;51.548;7.222;2023-05-07T08:42:48;22.70;72.80
2957;DHT22;1488;51.548;7.222;2023-05-07T08:45:15;22.70;72.70
2957;DHT22;1488;51.548;7.222;2023-05-07T08:47:51;22.70;72.80
2957;DHT22;1488;51.548;7.222;2023-05-07T08:50:18;22.70;72.80
2957;DHT22;1488;51.548;7.222;2023-05-07T08:52:47;22.70;72.70
2957;DHT22;1488;51.548;7.222;2023-05-07T08:55:14;22.70;72.80
2957;DHT22;1488;51.548;7.222;2023-05-07T08:57:41;22.80;72.90
2957;DHT22;1488;51.548;7.222;2023-05-07T09:00:09;22.80;72.90
2957;DHT22;1488;51.548;7.222;2023-05-07T09:02:36;22.80;72.90
2957;DHT22;1488;51.548;7.222;2023-05-07T09:05:05;22.80;72.90
2957;DHT22;1488;51.548;7.222;2023-05-07T09:07:32;22.80;72.80
2957;DHT22;1488;51.548;7.222;2023-05-07T09:10:01;22.80;72.90
2957;DHT22;1488;51.548;7.222;2023-05-07T09:12:28;22.80;72.80
2957;DHT22;1488;51.548;7.222;2023-05-07T09:14:55;22.80;72.80
2957;DHT22;1488;51.548;7.222;2023-05-07T09:17:21;22.80;72.80
2957;DHT22;1488;51.548;7.222;2023-05-07T09:19:48;22.80;72.80
2957;DHT22;1488;51.548;7.222;2023-05-07T09:22:17;22.80;72.90
2957;DHT22;1488;51.548;7.222;2023-05-07T09:24:47;22.80;72.90
2957;DHT22;1488;51.548;7.222;2023-05-07T09:27:14;22.80;72.90
2957;DHT22;1488;51.548;7.222;2023-05-07T09:29:41;22.80;72.90
2957;DHT22;1488;51.548;7.222;2023-05-07T09:32:09;22.80;73.00
2957;DHT22;1488;51.548;7.222;2023-05-07T09:34:36;22.80;73.00
2957;DHT22;1488;51.548;7.222;2023-05-07T09:37:04;22.90;73.10
2957;DHT22;1488;51.548;7.222;2023-05-07T09:39:43;22.90;73.10
2957;DHT22;1488;51.548;7.222;2023-05-07T09:42:10;22.90;73.10
2957;DHT22;1488;51.548;7.222;2023-05-07T09:44:38;22.90;73.10
2957;DHT22;1488;51.548;7.222;2023-05-07T09:47:06;22.90;73.10
2957;DHT22;1488;51.548;7.222;2023-05-07T09:49:35;22.90;73.10
2957;DHT22;1488;51.548;7.222;2023-05-07T09:52:03;22.90;73.10
2957;DHT22;1488;51.548;7.222;2023-05-07T09:54:32;23.00;73.30
2957;DHT22;1488;51.548;7.222;2023-05-07T09:57:01;23.00;73.20
2957;DHT22;1488;51.548;7.222;2023-05-07T09:59:30;23.00;73.10
2957;DHT22;1488;51.548;7.222;2023-05-07T10:01:58;23.00;73.20
2957;DHT22;1488;51.548;7.222;2023-05-07T10:04:25;23.00;73.20
2957;DHT22;1488;51.548;7.222;2023-05-07T10:06:52;23.00;73.30
2957;DHT22;1488;51.548;7.222;2023-05-07T10:09:21;23.00;73.20
2957;DHT22;1488;51.548;7.222;2023-05-07T10:11:49;23.00;73.30
2957;DHT22;1488;51.548;7.222;2023-05-07T10:14:17;23.10;73.50
2957;DHT22;1488;51.548;7.222;2023-05-07T10:16:48;23.10;73.50
2957;DHT22;1488;51.548;7.222;2023-05-07T10:19:14;23.10;73.40
2957;DHT22;1488;51.548;7.222;2023-05-07T10:21:44;23.10;73.40
2957;DHT22;1488;51.548;7.222;2023-05-07T10:24:20;23.10;73.40
2957;DHT22;1488;51.548;7.222;2023-05-07T10:26:50;23.10;73.40
2957;DHT22;1488;51.548;7.222;2023-05-07T10:29:30;23.20;73.50
2957;DHT22;1488;51.548;7.222;2023-05-07T10:32:10;23.20;73.50
2957;DHT22;1488;51.548;7.222;2023-05-07T10:34:45;23.20;73.40
2957;DHT22;1488;51.548;7.222;2023-05-07T10:37:13;23.30;73.60
2957;DHT22;1488;51.548;7.222;2023-05-07T10:39:41;23.20;73.30
2957;DHT22;1488;51.548;7.222;2023-05-07T10:42:09;23.20;73.40
2957;DHT22;1488;51.548;7.222;2023-05-07T10:44:37;23.20;73.40
2957;DHT22;1488;51.548;7.222;2023-05-07T10:47:07;23.30;73.60
2957;DHT22;1488;51.548;7.222;2023-05-07T10:49:35;23.20;73.60
2957;DHT22;1488;51.548;7.222;2023-05-07T10:52:19;23.30;73.70
2957;DHT22;1488;51.548;7.222;2023-05-07T10:54:46;23.30;73.70
2957;DHT22;1488;51.548;7.222;2023-05-07T10:57:34;23.30;73.50
2957;DHT22;1488;51.548;7.222;2023-05-07T11:00:03;23.40;73.70
2957;DHT22;1488;51.548;7.222;2023-05-07T11:05:42;23.40;73.60
2957;DHT22;1488;51.548;7.222;2023-05-07T11:08:10;23.40;73.60
2957;DHT22;1488;51.548;7.222;2023-05-07T11:10:50;23.40;73.70
2957;DHT22;1488;51.548;7.222;2023-05-07T11:13:19;23.40;73.60
2957;DHT22;1488;51.548;7.222;2023-05-07T11:16:16;23.40;73.70
2957;DHT22;1488;51.548;7.222;2023-05-07T11:18:47;23.40;73.70
2957;DHT22;1488;51.548;7.222;2023-05-07T11:21:32;23.40;73.70
2957;DHT22;1488;51.548;7.222;2023-05-07T11:23:59;23.40;73.70
2957;DHT22;1488;51.548;7.222;2023-05-07T11:26:28;23.40;73.70
2957;DHT22;1488;51.548;7.222;2023-05-07T11:28:55;23.40;73.80
2957;DHT22;1488;51.548;7.222;2023-05-07T11:31:24;23.40;73.70
2957;DHT22;1488;51.548;7.222;2023-05-07T11:33:53;23.50;73.90
2957;DHT22;1488;51.548;7.222;2023-05-07T11:36:22;23.60;73.90
2957;DHT22;1488;51.548;7.222;2023-05-07T11:38:48;23.40;73.60
2957;DHT22;1488;51.548;7.222;2023-05-07T11:41:16;23.40;73.70
2957;DHT22;1488;51.548;7.222;2023-05-07T11:43:56;23.40;73.80
2957;DHT22;1488;51.548;7.222;2023-05-07T11:46:25;23.40;73.80
2957;DHT22;1488;51.548;7.222;2023-05-07T11:48:52;23.40;73.90
2957;DHT22;1488;51.548;7.222;2023-05-07T11:51:20;23.40;73.80
2957;DHT22;1488;51.548;7.222;2023-05-07T11:53:47;23.50;73.80
2957;DHT22;1488;51.548;7.222;2023-05-07T11:56:15;23.50;73.80
2957;DHT22;1488;51.548;7.222;2023-05-07T11:58:43;23.50;73.80
2957;DHT22;1488;51.548;7.222;2023-05-07T12:01:11;23.50;73.90
2957;DHT22;1488;51.548;7.222;2023-05-07T12:03:41;23.60;74.00
2957;DHT22;1488;51.548;7.222;2023-05-07T12:06:09;23.60;73.90
2957;DHT22;1488;51.548;7.222;2023-05-07T12:08:37;23.60;73.90
2957;DHT22;1488;51.548;7.222;2023-05-07T12:11:07;23.60;73.80
2957;DHT22;1488;51.548;7.222;2023-05-07T12:13:34;23.60;73.80
2957;DHT22;1488;51.548;7.222;2023-05-07T12:16:01;23.60;73.90
2957;DHT22;1488;51.548;7.222;2023-05-07T12:18:29;23.60;73.90
2957;DHT22;1488;51.548;7.222;2023-05-07T12:21:00;23.60;73.80
2957;DHT22;1488;51.548;7.222;2023-05-07T12:23:28;23.60;73.90
2957;DHT22;1488;51.548;7.222;2023-05-07T12:25:55;23.60;73.90
2957;DHT22;1488;51.548;7.222;2023-05-07T12:28:22;23.60;73.90
2957;DHT22;1488;51.548;7.222;2023-05-07T12:30:50;23.70;74.10
2957;DHT22;1488;51.548;7.222;2023-05-07T12:33:18;23.60;73.90
2957;DHT22;1488;51.548;7.222;2023-05-07T12:35:47;23.70;74.00
2957;DHT22;1488;51.548;7.222;2023-05-07T12:38:17;23.80;74.10
2957;DHT22;1488;51.548;7.222;2023-05-07T12:40:45;23.70;74.00
2957;DHT22;1488;51.548;7.222;2023-05-07T12:43:16;23.80;75.00
2957;DHT22;1488;51.548;7.222;2023-05-07T12:45:44;23.70;74.00
2957;DHT22;1488;51.548;7.222;2023-05-07T12:48:11;23.60;73.90
2957;DHT22;1488;51.548;7.222;2023-05-07T12:50:38;23.60;73.90
2957;DHT22;1488;51.548;7.222;2023-05-07T12:53:06;23.60;73.90
2957;DHT22;1488;51.548;7.222;2023-05-07T12:55:41;23.60;74.10
2957;DHT22;1488;51.548;7.222;2023-05-07T12:58:08;23.60;74.00
2957;DHT22;1488;51.548;7.222;2023-05-07T13:00:37;23.60;74.00
2957;DHT22;1488;51.548;7.222;2023-05-07T13:03:04;23.60;74.00
2957;DHT22;1488;51.548;7.222;2023-05-07T13:05:31;23.60;73.90
2957;DHT22;1488;51.548;7.222;2023-05-07T13:07:59;23.60;74.10
2957;DHT22;1488;51.548;7.222;2023-05-07T13:10:28;23.60;74.00
2957;DHT22;1488;51.548;7.222;2023-05-07T13:12:56;23.60;74.00
2957;DHT22;1488;51.548;7.222;2023-05-07T13:15:22;23.50;73.90
2957;DHT22;1488;51.548;7.222;2023-05-07T13:17:49;23.50;73.80
2957;DHT22;1488;51.548;7.222;2023-05-07T13:20:16;23.60;73.90
2957;DHT22;1488;51.548;7.222;2023-05-07T13:22:43;23.70;74.10
2957;DHT22;1488;51.548;7.222;2023-05-07T13:25:10;23.50;73.80
2957;DHT22;1488;51.548;7.222;2023-05-07T13:27:36;23.50;73.80
2957;DHT22;1488;51.548;7.222;2023-05-07T13:30:06;23.50;73.70
2957;DHT22;1488;51.548;7.222;2023-05-07T13:32:33;23.50;73.70
2957;DHT22;1488;51.548;7.222;2023-05-07T13:35:00;23.50;73.70
2957;DHT22;1488;51.548;7.222;2023-05-07T13:37:26;23.50;73.70
2957;DHT22;1488;51.548;7.222;2023-05-07T13:39:53;23.50;73.80
2957;DHT22;1488;51.548;7.222;2023-05-07T13:42:20;23.50;73.80
2957;DHT22;1488;51.548;7.222;2023-05-07T13:44:47;23.50;73.80
2957;DHT22;1488;51.548;7.222;2023-05-07T13:47:15;23.40;73.70
2957;DHT22;1488;51.548;7.222;2023-05-07T13:49:42;23.40;73.80
2957;DHT22;1488;51.548;7.222;2023-05-07T13:52:09;23.60;74.00
2957;DHT22;1488;51.548;7.222;2023-05-07T13:54:36;23.40;73.80
2957;DHT22;1488;51.548;7.222;2023-05-07T13:57:03;23.40;73.80
2957;DHT22;1488;51.548;7.222;2023-05-07T13:59:30;23.40;73.80
2957;DHT22;1488;51.548;7.222;2023-05-07T14:01:56;23.40;73.70
2957;DHT22;1488;51.548;7.222;2023-05-07T14:04:25;23.40;73.80
2957;DHT22;1488;51.548;7.222;2023-05-07T14:06:51;23.40;73.70
2957;DHT22;1488;51.548;7.222;2023-05-07T14:09:18;23.40;73.70
2957;DHT22;1488;51.548;7.222;2023-05-07T14:11:45;23.40;73.80
2957;DHT22;1488;51.548;7.222;2023-05-07T14:14:13;23.40;73.80
2957;DHT22;1488;51.548;7.222;2023-05-07T14:16:39;23.40;73.70
2957;DHT22;1488;51.548;7.222;2023-05-07T14:19:06;23.40;73.70
2957;DHT22;1488;51.548;7.222;2023-05-07T14:21:34;23.40;73.70
2957;DHT22;1488;51.548;7.222;2023-05-07T14:24:01;23.50;73.90
2957;DHT22;1488;51.548;7.222;2023-05-07T14:26:28;23.40;73.80
2957;DHT22;1488;51.548;7.222;2023-05-07T14:28:55;23.40;73.80
2957;DHT22;1488;51.548;7.222;2023-05-07T14:31:24;23.30;73.60
2957;DHT22;1488;51.548;7.222;2023-05-07T14:33:50;23.30;73.70
2957;DHT22;1488;51.548;7.222;2023-05-07T14:36:18;23.30;73.70
2957;DHT22;1488;51.548;7.222;2023-05-07T14:38:48;23.50;73.90
2957;DHT22;1488;51.548;7.222;2023-05-07T14:41:15;23.30;73.70
2957;DHT22;1488;51.548;7.222;2023-05-07T14:43:42;23.30;73.70
2957;DHT22;1488;51.548;7.222;2023-05-07T14:46:15;23.30;73.70
2957;DHT22;1488;51.548;7.222;2023-05-07T14:48:42;23.30;73.00
2957;DHT22;1488;51.548;7.222;2023-05-07T14:51:09;23.30;73.30
2957;DHT22;1488;51.548;7.222;2023-05-07T14:53:36;23.30;73.60
2957;DHT22;1488;51.548;7.222;2023-05-07T14:56:05;23.30;73.60
2957;DHT22;1488;51.548;7.222;2023-05-07T14:58:31;23.30;73.70
2957;DHT22;1488;51.548;7.222;2023-05-07T15:00:59;23.40;73.80
2957;DHT22;1488;51.548;7.222;2023-05-07T15:03:25;23.30;73.70
2957;DHT22;1488;51.548;7.222;2023-05-07T15:05:52;23.30;73.60
2957;DHT22;1488;51.548;7.222;2023-05-07T15:08:19;23.30;73.60
2957;DHT22;1488;51.548;7.222;2023-05-07T15:10:46;23.30;73.60
2957;DHT22;1488;51.548;7.222;2023-05-07T15:13:14;23.30;73.60
2957;DHT22;1488;51.548;7.222;2023-05-07T15:15:42;23.30;73.60
2957;DHT22;1488;51.548;7.222;2023-05-07T15:18:09;23.40;73.70
2957;DHT22;1488;51.548;7.222;2023-05-07T15:20:36;23.30;73.60
2957;DHT22;1488;51.548;7.222;2023-05-07T15:23:03;23.30;73.60
2957;DHT22;1488;51.548;7.222;2023-05-07T15:25:30;23.30;73.60
2957;DHT22;1488;51.548;7.222;2023-05-07T15:27:59;23.30;73.60
2957;DHT22;1488;51.548;7.222;2023-05-07T15:30:27;23.30;73.60
2957;DHT22;1488;51.548;7.222;2023-05-07T15:32:54;23.30;73.60
2957;DHT22;1488;51.548;7.222;2023-05-07T15:35:21;23.30;73.60
2957;DHT22;1488;51.548;7.222;2023-05-07T15:37:48;23.30;73.60
2957;DHT22;1488;51.548;7.222;2023-05-07T15:40:15;23.30;73.60
2957;DHT22;1488;51.548;7.222;2023-05-07T15:42:44;23.20;73.50
2957;DHT22;1488;51.548;7.222;2023-05-07T15:45:11;23.30;73.60
2957;DHT22;1488;51.548;7.222;2023-05-07T15:47:39;23.20;73.60
2957;DHT22;1488;51.548;7.222;2023-05-07T15:50:06;23.20;73.50
2957;DHT22;1488;51.548;7.222;2023-05-07T15:52:33;23.20;73.50
2957;DHT22;1488;51.548;7.222;2023-05-07T15:55:00;23.20;73.60
2957;DHT22;1488;51.548;7.222;2023-05-07T15:57:27;23.20;73.50
2957;DHT22;1488;51.548;7.222;2023-05-07T15:59:54;23.20;73.50
2957;DHT22;1488;51.548;7.222;2023-05-07T16:02:21;23.20;73.50
2957;DHT22;1488;51.548;7.222;2023-05-07T16:04:49;23.20;73.60
2957;DHT22;1488;51.548;7.222;2023-05-07T16:07:16;23.20;73.60
2957;DHT22;1488;51.548;7.222;2023-05-07T16:09:44;23.20;73.50